This is the latest recevied weather packets stored in our database for station/object SQ7KHZ-10. If no packets are shown the sender has not sent any weather packets the latest 10 day(s).
| Time | Temp. | Humidity | Pressure | Rain* | Wind** | Luminosity | Snow |
|---|---|---|---|---|---|---|---|
| 1777697274 | 5° C | 90% | 1025.2 hPa | 0 mm | - | - | - |
| 1777696062 | 2.78° C | 93% | 1025.1 hPa | 0 mm | - | - | - |
| 1777694862 | 2.22° C | 93% | 1025 hPa | 0 mm | - | - | - |
| 1777693650 | 1.67° C | 94% | 1025 hPa | 0 mm | - | - | - |
| 1777692450 | 1.67° C | 94% | 1025 hPa | 0 mm | - | - | - |
| 1777691237 | 1.67° C | 94% | 1025 hPa | 0 mm | - | - | - |
| 1777690038 | 2.22° C | 93% | 1024.9 hPa | 0 mm | - | - | - |
| 1777688826 | 2.78° C | 93% | 1024.9 hPa | 0 mm | - | - | - |
| 1777687626 | 2.78° C | 92% | 1024.9 hPa | 0 mm | - | - | - |
| 1777686414 | 3.33° C | 91% | 1024.8 hPa | 0 mm | - | - | - |
| 1777685202 | 3.33° C | 90% | 1024.9 hPa | 0 mm | - | - | - |
| 1777684002 | 3.89° C | 89% | 1024.8 hPa | 0 mm | - | - | - |
| 1777682802 | 3.89° C | 89% | 1024.9 hPa | 0 mm | - | - | - |
| 1777681590 | 4.44° C | 87% | 1024.8 hPa | 0 mm | - | - | - |
| 1777680390 | 5° C | 86% | 1024.8 hPa | 0 mm | - | - | - |
| 1777679178 | 5° C | 86% | 1024.8 hPa | 0 mm | - | - | - |
| 1777677978 | 5.56° C | 85% | 1024.9 hPa | 0 mm | - | - | - |
| 1777676766 | 6.11° C | 84% | 1025 hPa | 0 mm | - | - | - |
| 1777675566 | 6.11° C | 83% | 1024.9 hPa | 0 mm | - | - | - |
| 1777674376 | 6.67° C | 82% | 1024.8 hPa | 0 mm | - | - | - |
| 1777673142 | 7.78° C | 79% | 1024.8 hPa | 0 mm | - | - | - |
| 1777671943 | 8.33° C | 76% | 1024.8 hPa | 0 mm | - | - | - |
| 1777670730 | 8.89° C | 74% | 1024.8 hPa | 0 mm | - | - | - |
| 1777669530 | 8.89° C | 74% | 1024.8 hPa | 0 mm | - | - | - |
| 1777668318 | 9.44° C | 72% | 1024.8 hPa | 0 mm | - | - | - |
* Rain latest hour (hover to see other rain measurements)
** Current wind speed in m/s (hover to see current wind gust speed)